Time;durP1;ratioP1;P1;durP2;ratioP2;P2;SDS_P1;SDS_P2;PMS_P1;PMS_P2;Temp;Humidity;BMP_temperature;BMP_pressure;BME280_temperature;BME280_humidity;BME280_pressure;Samples;Min_cycle;Max_cycle;Signal;HPM_P1;HPM_P2
2021/05/20 00:01:13;;;;;;;2.45;1.58;;;12.90;96.10;;;;;;5080994;28;20040;-72
2021/05/20 00:03:38;;;;;;;2.40;1.40;;;13.00;95.60;;;;;;5082369;28;20027;-73
2021/05/20 00:06:05;;;;;;;1.95;1.45;;;13.00;95.80;;;;;;5084460;28;20032;-73
2021/05/20 00:08:31;;;;;;;1.83;1.40;;;13.00;96.00;;;;;;5083353;28;20481;-73
2021/05/20 00:10:56;;;;;;;2.53;1.67;;;12.90;96.70;;;;;;5077397;28;20636;-73
2021/05/20 00:13:22;;;;;;;2.55;1.67;;;13.00;96.10;;;;;;5080292;28;20039;-73
2021/05/20 00:15:47;;;;;;;1.83;1.38;;;13.00;95.80;;;;;;5082800;28;20020;-73
2021/05/20 00:18:13;;;;;;;1.70;1.60;;;12.90;96.10;;;;;;5084197;28;20090;-73
2021/05/20 00:20:38;;;;;;;2.42;1.73;;;12.90;96.40;;;;;;5077973;28;20024;-73
2021/05/20 00:23:04;;;;;;;2.38;1.60;;;12.80;97.10;;;;;;5078562;28;20422;-73
2021/05/20 00:25:29;;;;;;;2.10;1.50;;;12.70;97.70;;;;;;5081754;28;20042;-73
2021/05/20 00:27:55;;;;;;;1.63;1.50;;;12.80;97.50;;;;;;5083071;28;20102;-73
2021/05/20 00:30:20;;;;;;;2.17;1.42;;;12.80;97.50;;;;;;5078581;28;20127;-73
2021/05/20 00:32:46;;;;;;;2.78;1.70;;;12.80;97.70;;;;;;5081903;28;20020;-73
2021/05/20 00:35:12;;;;;;;2.92;2.03;;;12.70;98.40;;;;;;5082063;28;20249;-73
2021/05/20 00:37:37;;;;;;;2.08;1.63;;;12.60;98.70;;;;;;5086300;28;20039;-73
2021/05/20 00:40:04;;;;;;;3.15;1.67;;;12.60;99.20;;;;;;5081104;28;20579;-73
2021/05/20 00:42:30;;;;;;;3.67;1.40;;;12.60;99.10;;;;;;5077668;28;20521;-73
2021/05/20 00:45:01;;;;;;;2.35;1.73;;;12.50;99.10;;;;;;5081092;28;20039;-73
2021/05/20 00:47:32;;;;;;;2.03;1.38;;;12.60;99.30;;;;;;5082592;28;20028;-73
2021/05/20 00:50:03;;;;;;;9.27;2.05;;;12.60;99.10;;;;;;5081070;28;20055;-73
2021/05/20 00:52:28;;;;;;;1.50;1.40;;;12.60;99.40;;;;;;5083219;28;20372;-73
2021/05/20 00:54:56;;;;;;;1.73;1.38;;;12.60;99.50;;;;;;5077488;28;20038;-73
2021/05/20 00:57:23;;;;;;;3.20;1.40;;;12.60;99.20;;;;;;5082699;28;20100;-73
2021/05/20 00:59:49;;;;;;;4.25;2.00;;;12.60;99.20;;;;;;5083051;28;20024;-73
2021/05/20 01:02:15;;;;;;;6.18;1.90;;;12.60;99.30;;;;;;5081368;28;20089;-73
2021/05/20 01:04:41;;;;;;;3.95;1.58;;;12.60;99.40;;;;;;5077887;28;20063;-73
2021/05/20 01:07:07;;;;;;;1.77;1.60;;;12.60;99.50;;;;;;5077870;28;20024;-73
2021/05/20 01:09:35;;;;;;;1.40;1.30;;;12.60;99.40;;;;;;5082035;28;20137;-73
2021/05/20 01:12:04;;;;;;;1.83;1.58;;;12.60;99.50;;;;;;5083405;28;20491;-73
2021/05/20 01:14:29;;;;;;;1.40;1.30;;;12.70;99.50;;;;;;5079834;28;20027;-73
2021/05/20 01:16:54;;;;;;;2.05;1.50;;;12.70;99.30;;;;;;5080829;28;20035;-73
2021/05/20 01:19:20;;;;;;;2.90;1.85;;;12.60;99.40;;;;;;5079503;28;20578;-73
2021/05/20 01:21:46;;;;;;;2.58;1.30;;;12.60;99.60;;;;;;5083944;28;20032;-73
2021/05/20 01:24:12;;;;;;;2.38;1.75;;;12.60;99.70;;;;;;5079407;28;20051;-73
2021/05/20 01:26:41;;;;;;;2.03;1.50;;;12.60;99.90;;;;;;5076981;28;20120;-72
2021/05/20 01:29:07;;;;;;;3.15;1.40;;;12.50;99.90;;;;;;5079192;28;20107;-73
2021/05/20 01:31:33;;;;;;;1.70;1.55;;;12.50;99.90;;;;;;5079554;28;20024;-72
2021/05/20 01:33:59;;;;;;;1.95;1.40;;;12.50;99.90;;;;;;5081114;28;20444;-73
2021/05/20 01:36:28;;;;;;;1.77;1.35;;;12.40;99.90;;;;;;5081703;28;20032;-73
2021/05/20 01:38:57;;;;;;;1.90;1.48;;;12.40;99.90;;;;;;5076751;28;20024;-73
2021/05/20 01:41:23;;;;;;;2.17;1.50;;;12.30;99.90;;;;;;5081148;28;20032;-73
2021/05/20 01:43:49;;;;;;;4.50;1.50;;;12.40;99.90;;;;;;5082579;28;20505;-73
2021/05/20 01:46:14;;;;;;;2.92;1.50;;;12.40;99.90;;;;;;5080970;28;20087;-73
2021/05/20 01:48:44;;;;;;;1.98;1.60;;;12.40;99.90;;;;;;5077246;28;20119;-73
2021/05/20 01:51:11;;;;;;;1.92;1.42;;;12.40;99.90;;;;;;5078400;28;20016;-73
2021/05/20 01:53:38;;;;;;;2.00;1.27;;;12.40;99.90;;;;;;5081729;28;20043;-73
2021/05/20 01:56:05;;;;;;;1.80;1.58;;;12.40;99.90;;;;;;5078966;28;20513;-73
2021/05/20 01:58:31;;;;;;;1.95;1.40;;;12.40;99.90;;;;;;5083438;28;20126;-72
2021/05/20 02:00:57;;;;;;;1.70;1.30;;;12.40;99.90;;;;;;5080918;28;20092;-72
2021/05/20 02:03:23;;;;;;;2.50;1.60;;;12.30;99.90;;;;;;5080899;28;20043;-73
2021/05/20 02:05:48;;;;;;;6.70;1.50;;;12.30;99.90;;;;;;5080890;28;20055;-73
2021/05/20 02:08:14;;;;;;;1.92;1.27;;;12.30;99.90;;;;;;5080143;28;20484;-73
2021/05/20 02:10:40;;;;;;;1.40;1.27;;;12.40;99.90;;;;;;5076637;28;20028;-72
2021/05/20 02:13:06;;;;;;;12.95;1.50;;;12.40;99.90;;;;;;5081582;28;20024;-73
2021/05/20 02:15:32;;;;;;;1.63;1.17;;;12.40;99.90;;;;;;5079402;28;20107;-73
2021/05/20 02:17:57;;;;;;;2.70;1.35;;;12.40;99.90;;;;;;5082000;28;20131;-73
2021/05/20 02:20:23;;;;;;;3.35;1.60;;;12.40;99.90;;;;;;5079363;28;20031;-72
2021/05/20 02:22:49;;;;;;;1.88;1.50;;;12.30;99.90;;;;;;5079193;28;20085;-72
2021/05/20 02:25:16;;;;;;;3.03;1.67;;;12.30;99.90;;;;;;5083388;28;20024;-72
2021/05/20 02:27:41;;;;;;;3.25;1.67;;;12.20;99.90;;;;;;5078669;28;20024;-73
2021/05/20 02:30:09;;;;;;;3.22;1.45;;;12.20;99.90;;;;;;5082614;28;20069;-72
2021/05/20 02:32:35;;;;;;;5.15;1.60;;;12.20;99.90;;;;;;5079132;28;20020;-72
2021/05/20 02:35:01;;;;;;;2.95;1.58;;;12.30;99.90;;;;;;5078927;28;20054;-71
2021/05/20 02:37:27;;;;;;;3.40;1.80;;;12.30;99.90;;;;;;5079279;28;20039;-71
2021/05/20 02:39:52;;;;;;;1.55;1.45;;;12.30;99.90;;;;;;5082895;28;20028;-70
2021/05/20 02:42:18;;;;;;;1.70;1.30;;;12.30;99.90;;;;;;5080937;28;20024;-71
2021/05/20 02:44:43;;;;;;;2.67;1.63;;;12.30;99.90;;;;;;5081230;28;20020;-71
2021/05/20 02:47:09;;;;;;;3.38;1.52;;;12.30;99.90;;;;;;5086393;28;20486;-71
2021/05/20 02:49:34;;;;;;;2.67;1.60;;;12.20;99.90;;;;;;5086786;28;20137;-72
2021/05/20 02:52:00;;;;;;;2.15;1.70;;;12.20;99.90;;;;;;5081134;28;20048;-71
2021/05/20 02:54:25;;;;;;;1.75;1.40;;;12.30;99.90;;;;;;5081688;28;20089;-71
2021/05/20 02:56:51;;;;;;;3.20;1.40;;;12.20;99.90;;;;;;5082097;28;20384;-72
2021/05/20 02:59:17;;;;;;;2.25;1.60;;;12.20;99.90;;;;;;5081498;28;20040;-74
2021/05/20 03:01:44;;;;;;;1.33;1.20;;;12.10;99.90;;;;;;5083322;28;20031;-72
2021/05/20 03:04:11;;;;;;;2.88;1.50;;;12.10;99.90;;;;;;5077216;28;20090;-72
2021/05/20 03:06:37;;;;;;;3.38;1.30;;;12.10;99.90;;;;;;5081551;28;20089;-72
2021/05/20 03:09:07;;;;;;;1.85;1.38;;;12.10;99.90;;;;;;5083008;28;20425;-72
2021/05/20 03:11:32;;;;;;;2.10;1.42;;;12.20;99.90;;;;;;5082267;28;20035;-72
2021/05/20 03:13:58;;;;;;;2.35;1.55;;;12.20;99.90;;;;;;5082820;28;20028;-72
2021/05/20 03:16:24;;;;;;;1.23;1.13;;;12.20;99.90;;;;;;5080962;28;20020;-72
2021/05/20 03:18:50;;;;;;;1.88;1.45;;;12.20;99.90;;;;;;5083011;28;20023;-71
2021/05/20 03:21:16;;;;;;;1.70;1.52;;;12.10;99.90;;;;;;5082003;28;20054;-72
2021/05/20 03:23:42;;;;;;;3.75;1.60;;;12.10;99.90;;;;;;5085204;28;20052;-71
2021/05/20 03:26:07;;;;;;;2.10;1.60;;;12.10;99.90;;;;;;5083174;28;20032;-72
2021/05/20 03:28:33;;;;;;;2.45;1.42;;;12.10;99.90;;;;;;5081658;28;20039;-71
2021/05/20 03:30:58;;;;;;;2.28;1.30;;;12.20;99.90;;;;;;5083259;28;20016;-71
2021/05/20 03:33:23;;;;;;;3.00;1.60;;;12.20;99.90;;;;;;5082651;28;20032;-72
2021/05/20 03:35:49;;;;;;;2.45;1.60;;;12.20;99.90;;;;;;5082264;28;20028;-72
2021/05/20 03:38:14;;;;;;;2.33;1.60;;;12.20;99.90;;;;;;5083653;28;20440;-72
2021/05/20 03:40:40;;;;;;;4.65;1.63;;;12.10;99.90;;;;;;5079561;28;20031;-72
2021/05/20 03:43:05;;;;;;;4.38;1.80;;;12.00;99.90;;;;;;5081361;28;20078;-71
2021/05/20 03:45:31;;;;;;;2.10;1.60;;;12.10;99.90;;;;;;5082012;28;20064;-71
2021/05/20 03:47:56;;;;;;;3.10;1.95;;;12.10;99.90;;;;;;5081395;28;20099;-72
2021/05/20 03:50:22;;;;;;;2.03;1.83;;;12.10;99.90;;;;;;5077730;28;20038;-72
2021/05/20 03:52:48;;;;;;;9.40;2.05;;;12.10;99.90;;;;;;5085910;28;20424;-72
2021/05/20 03:55:13;;;;;;;1.83;1.55;;;12.10;99.90;;;;;;5081998;28;20038;-72
2021/05/20 03:57:39;;;;;;;6.40;1.70;;;12.10;99.90;;;;;;5077607;28;20024;-71
2021/05/20 04:00:05;;;;;;;3.75;1.85;;;12.10;99.90;;;;;;5081553;28;20058;-72
2021/05/20 04:02:31;;;;;;;2.58;1.60;;;12.00;99.90;;;;;;5080942;28;20038;-72
2021/05/20 04:04:57;;;;;;;2.20;1.80;;;12.00;99.90;;;;;;5074724;28;20032;-72
2021/05/20 04:07:22;;;;;;;1.42;1.33;;;12.00;99.90;;;;;;5080795;28;20494;-72
2021/05/20 04:09:48;;;;;;;2.17;1.45;;;12.10;99.90;;;;;;5081567;28;20020;-72
2021/05/20 04:12:13;;;;;;;2.55;1.90;;;12.10;99.90;;;;;;5079129;28;20047;-71
2021/05/20 04:14:39;;;;;;;2.75;1.90;;;12.10;99.90;;;;;;5082539;28;20122;-72
2021/05/20 04:17:04;;;;;;;3.47;1.80;;;12.10;99.90;;;;;;5082629;28;20016;-72
2021/05/20 04:19:31;;;;;;;3.25;2.00;;;12.00;99.90;;;;;;5085515;28;20031;-73
2021/05/20 04:21:56;;;;;;;3.58;1.98;;;12.10;99.90;;;;;;5080269;28;20024;-72
2021/05/20 04:24:24;;;;;;;2.58;1.90;;;12.00;99.90;;;;;;5081940;28;20039;-71
2021/05/20 04:26:50;;;;;;;2.75;1.65;;;12.00;99.90;;;;;;5084751;28;20023;-70
2021/05/20 04:29:15;;;;;;;2.33;1.98;;;12.10;99.90;;;;;;5081716;28;20138;-72
2021/05/20 04:31:41;;;;;;;1.95;1.60;;;12.10;99.90;;;;;;5079128;28;20111;-71
2021/05/20 04:34:06;;;;;;;2.70;1.85;;;12.10;99.90;;;;;;5082490;28;20522;-72
2021/05/20 04:36:32;;;;;;;2.15;1.80;;;12.10;99.90;;;;;;5080529;28;20532;-71
2021/05/20 04:38:57;;;;;;;4.30;2.10;;;12.20;99.90;;;;;;5081857;28;20024;-72
2021/05/20 04:41:23;;;;;;;2.35;1.73;;;12.20;99.90;;;;;;5083385;28;20032;-72
2021/05/20 04:43:49;;;;;;;3.08;2.22;;;12.20;99.90;;;;;;5079577;28;20069;-70
2021/05/20 04:46:14;;;;;;;2.22;1.85;;;12.20;99.90;;;;;;5080253;28;20036;-72
2021/05/20 04:48:40;;;;;;;3.33;2.00;;;12.20;99.90;;;;;;5079093;28;20027;-71
2021/05/20 04:51:05;;;;;;;3.25;1.98;;;12.30;99.90;;;;;;5082345;28;20028;-72
2021/05/20 04:53:35;;;;;;;3.58;2.10;;;12.40;99.90;;;;;;5080379;28;20035;-71
2021/05/20 04:56:01;;;;;;;2.38;1.83;;;12.40;99.90;;;;;;5078942;28;20099;-73
2021/05/20 04:58:26;;;;;;;2.70;2.05;;;12.40;99.90;;;;;;5079046;28;20111;-72
2021/05/20 05:00:52;;;;;;;2.63;2.22;;;12.40;99.90;;;;;;5081108;28;20378;-71
2021/05/20 05:03:17;;;;;;;2.58;2.00;;;12.50;99.90;;;;;;5080691;28;20023;-71
2021/05/20 05:05:43;;;;;;;4.07;2.30;;;12.50;99.90;;;;;;5081764;28;20659;-71
2021/05/20 05:08:08;;;;;;;3.92;2.00;;;12.50;99.90;;;;;;5078975;28;20707;-73
2021/05/20 05:10:34;;;;;;;3.25;2.33;;;12.60;99.90;;;;;;5081798;28;20542;-72
2021/05/20 05:12:59;;;;;;;3.22;2.38;;;12.60;99.90;;;;;;5082429;28;20418;-72
2021/05/20 05:15:25;;;;;;;2.42;2.00;;;12.70;99.90;;;;;;5082152;28;20547;-74
2021/05/20 05:17:50;;;;;;;3.83;2.70;;;12.60;99.90;;;;;;5078874;28;20020;-74
2021/05/20 05:20:16;;;;;;;5.25;2.45;;;12.70;99.90;;;;;;5080043;28;20115;-75
2021/05/20 05:22:41;;;;;;;2.85;2.28;;;12.60;99.90;;;;;;5081813;28;20514;-76
2021/05/20 05:25:13;;;;;;;4.05;2.65;;;12.60;99.90;;;;;;5081790;28;20378;-75
2021/05/20 05:27:39;;;;;;;2.67;2.20;;;12.70;99.90;;;;;;5078388;28;20032;-74
2021/05/20 05:30:05;;;;;;;4.20;2.40;;;12.70;99.90;;;;;;5080953;28;20107;-75
2021/05/20 05:32:31;;;;;;;6.63;2.88;;;12.70;99.90;;;;;;5081021;28;20028;-75
2021/05/20 05:34:56;;;;;;;4.03;2.75;;;12.80;99.90;;;;;;5083975;28;20024;-75
2021/05/20 05:37:22;;;;;;;9.90;2.33;;;12.80;99.90;;;;;;5078085;28;20482;-74
2021/05/20 05:39:47;;;;;;;3.25;2.17;;;12.80;99.90;;;;;;5081825;28;20137;-75
2021/05/20 05:42:13;;;;;;;3.13;2.45;;;12.90;99.90;;;;;;5082838;28;20028;-71
2021/05/20 05:44:38;;;;;;;6.30;2.20;;;12.90;99.90;;;;;;5079656;28;20024;-70
2021/05/20 05:47:04;;;;;;;2.55;1.92;;;12.90;99.90;;;;;;5084298;28;20482;-69
2021/05/20 05:49:31;;;;;;;3.95;2.63;;;12.90;99.90;;;;;;5081375;28;20124;-68
2021/05/20 05:52:05;;;;;;;4.13;2.58;;;12.90;99.90;;;;;;5081120;28;20055;-69
2021/05/20 05:54:30;;;;;;;5.53;2.53;;;12.90;99.90;;;;;;5083099;28;20922;-69
2021/05/20 05:56:56;;;;;;;3.92;2.80;;;13.00;99.90;;;;;;5080308;28;20030;-69
2021/05/20 05:59:21;;;;;;;4.03;2.58;;;13.00;99.90;;;;;;5081592;28;20294;-69
2021/05/20 06:01:47;;;;;;;3.50;2.35;;;13.10;99.90;;;;;;5077302;28;20093;-69
2021/05/20 06:04:15;;;;;;;5.05;2.53;;;13.10;99.90;;;;;;5081204;28;20043;-68
2021/05/20 06:06:44;;;;;;;2.55;2.10;;;13.00;99.90;;;;;;5079398;28;20107;-68
2021/05/20 06:09:11;;;;;;;5.13;2.35;;;13.10;99.90;;;;;;5082064;28;20059;-69
2021/05/20 06:11:37;;;;;;;3.17;2.28;;;13.10;99.90;;;;;;5080917;28;20043;-68
2021/05/20 06:14:07;;;;;;;4.22;2.22;;;13.10;99.90;;;;;;5079395;28;20078;-72
2021/05/20 06:16:35;;;;;;;2.83;2.10;;;13.10;99.90;;;;;;5086382;28;20024;-73
2021/05/20 06:19:01;;;;;;;4.80;2.55;;;13.20;99.90;;;;;;5078765;28;20088;-73
2021/05/20 06:21:26;;;;;;;2.92;2.20;;;13.20;99.90;;;;;;5076799;28;20021;-73
2021/05/20 06:23:52;;;;;;;2.40;2.05;;;13.20;99.90;;;;;;5081728;28;20375;-73
2021/05/20 06:26:18;;;;;;;3.55;2.55;;;13.30;99.90;;;;;;5080886;28;20028;-73
2021/05/20 06:28:43;;;;;;;4.40;2.53;;;13.40;99.90;;;;;;5082607;28;20030;-73
2021/05/20 06:31:09;;;;;;;2.70;2.10;;;13.40;99.90;;;;;;5081642;28;20028;-72
2021/05/20 06:33:34;;;;;;;2.53;2.22;;;13.50;99.90;;;;;;5083709;28;20060;-73
2021/05/20 06:36:00;;;;;;;3.15;1.98;;;13.50;99.90;;;;;;5080291;28;20129;-73
2021/05/20 06:38:25;;;;;;;4.93;2.20;;;13.70;99.90;;;;;;5082258;28;20094;-73
2021/05/20 06:40:51;;;;;;;7.05;1.77;;;13.80;99.90;;;;;;5078103;28;20727;-74
2021/05/20 06:43:16;;;;;;;3.03;2.03;;;13.80;99.90;;;;;;5073274;28;20024;-73
2021/05/20 06:45:42;;;;;;;3.22;1.80;;;13.90;99.90;;;;;;5081671;28;20036;-73
2021/05/20 06:48:08;;;;;;;4.80;2.20;;;14.10;99.90;;;;;;5082125;28;20039;-73
2021/05/20 06:50:33;;;;;;;4.30;1.80;;;14.20;99.90;;;;;;5080780;28;20043;-73
2021/05/20 06:52:59;;;;;;;4.35;2.25;;;14.20;99.90;;;;;;5082228;28;20720;-73
2021/05/20 06:55:24;;;;;;;6.25;1.70;;;14.20;99.90;;;;;;5081297;28;20063;-73
2021/05/20 07:00:28;;;;;;;5.93;1.88;;;14.30;99.20;;;;;;5081640;28;20028;-73
2021/05/20 07:02:54;;;;;;;2.65;1.92;;;14.40;99.90;;;;;;5082772;28;20036;-73
2021/05/20 07:05:19;;;;;;;2.60;1.40;;;14.40;98.50;;;;;;5081559;28;20031;-73
2021/05/20 07:07:45;;;;;;;3.28;1.70;;;14.40;97.10;;;;;;5078432;28;20546;-73
2021/05/20 07:10:12;;;;;;;1.73;1.63;;;14.50;96.50;;;;;;5081550;28;20028;-72
2021/05/20 07:12:37;;;;;;;2.22;1.60;;;14.50;96.00;;;;;;5081038;28;20047;-73
2021/05/20 07:15:04;;;;;;;2.42;1.70;;;14.40;94.90;;;;;;5082865;28;20024;-73
2021/05/20 07:17:29;;;;;;;3.35;1.55;;;14.40;95.40;;;;;;5082691;28;20560;-73
2021/05/20 07:20:01;;;;;;;4.40;1.73;;;14.40;96.10;;;;;;5080701;28;20056;-73
2021/05/20 07:22:28;;;;;;;2.05;1.73;;;14.40;96.50;;;;;;5080566;28;20487;-73
2021/05/20 07:24:53;;;;;;;3.60;1.98;;;14.40;96.50;;;;;;5080370;28;20062;-73
2021/05/20 07:27:19;;;;;;;2.38;2.00;;;14.40;96.10;;;;;;5082442;28;20114;-73
2021/05/20 07:29:44;;;;;;;10.55;1.90;;;14.40;96.30;;;;;;5080148;28;20078;-73
2021/05/20 07:32:16;;;;;;;2.08;1.75;;;14.40;96.30;;;;;;5072287;28;20281;-73
2021/05/20 07:34:41;;;;;;;3.83;2.00;;;14.40;96.40;;;;;;5089881;28;20039;-81
2021/05/20 07:37:07;;;;;;;2.20;1.40;;;14.30;96.90;;;;;;5086998;28;20061;-81
2021/05/20 07:39:33;;;;;;;3.25;1.40;;;14.30;94.60;;;;;;5089913;28;20020;-81
2021/05/20 07:41:58;;;;;;;2.45;1.50;;;14.40;95.30;;;;;;5090358;28;20482;-84
2021/05/20 07:44:24;;;;;;;2.50;1.65;;;14.40;95.60;;;;;;5089172;28;20451;-83
2021/05/20 07:46:49;;;;;;;1.40;1.00;;;14.50;95.00;;;;;;5089298;28;20032;-73
2021/05/20 07:49:15;;;;;;;1.75;1.08;;;14.60;92.40;;;;;;5087892;28;20360;-73
2021/05/20 07:51:40;;;;;;;2.03;1.45;;;14.50;91.70;;;;;;5083568;28;20194;-73
2021/05/20 07:54:06;;;;;;;4.03;1.48;;;14.40;91.30;;;;;;5087840;28;20451;-75
2021/05/20 07:56:33;;;;;;;3.17;1.35;;;14.30;92.50;;;;;;5089681;28;20483;-74
2021/05/20 07:58:59;;;;;;;2.33;1.08;;;14.30;90.30;;;;;;5089478;28;20089;-75
2021/05/20 08:01:24;;;;;;;0.98;0.90;;;14.30;91.20;;;;;;5089029;28;20027;-74
2021/05/20 08:03:54;;;;;;;1.13;0.93;;;14.40;87.90;;;;;;5089541;28;20387;-75
2021/05/20 08:06:23;;;;;;;3.25;1.23;;;14.50;85.60;;;;;;5089585;28;20119;-75
2021/05/20 08:11:21;;;;;;;0.73;0.73;;;14.30;87.00;;;;;;5089986;28;20028;-74
2021/05/20 08:13:47;;;;;;;0.70;0.70;;;14.40;84.40;;;;;;5089581;28;20034;-75
2021/05/20 08:16:13;;;;;;;4.53;0.88;;;14.60;85.70;;;;;;5088914;28;20032;-75
2021/05/20 08:18:39;;;;;;;2.70;1.00;;;14.70;85.60;;;;;;5089346;28;20546;-75
2021/05/20 08:21:06;;;;;;;1.55;0.90;;;14.90;84.00;;;;;;5089451;28;20120;-73
2021/05/20 08:23:32;;;;;;;2.03;1.23;;;14.80;83.40;;;;;;5088876;28;20047;-73
2021/05/20 08:25:59;;;;;;;0.80;0.80;;;14.80;84.30;;;;;;5088924;28;20084;-73
2021/05/20 08:28:24;;;;;;;1.75;0.90;;;14.90;82.90;;;;;;5089588;28;20020;-74
2021/05/20 08:30:50;;;;;;;1.92;1.05;;;14.90;83.50;;;;;;5089018;28;20085;-74
2021/05/20 08:33:15;;;;;;;1.42;1.00;;;15.00;82.70;;;;;;5088806;28;20026;-74
2021/05/20 08:35:41;;;;;;;1.00;0.90;;;15.00;84.20;;;;;;5088007;28;20028;-74
2021/05/20 08:38:07;;;;;;;4.65;1.10;;;15.00;81.70;;;;;;5089456;28;20036;-74
2021/05/20 08:40:33;;;;;;;1.50;0.98;;;15.00;82.40;;;;;;5089304;28;20123;-74
2021/05/20 08:42:59;;;;;;;1.77;0.80;;;15.10;80.80;;;;;;5089174;28;20158;-73
2021/05/20 08:45:35;;;;;;;2.28;0.98;;;15.10;81.50;;;;;;5088327;28;20521;-74
2021/05/20 08:48:01;;;;;;;0.75;0.75;;;15.30;81.80;;;;;;5089345;28;20028;-75
2021/05/20 08:50:29;;;;;;;1.00;0.90;;;15.30;80.10;;;;;;5075487;28;20020;-75
2021/05/20 08:52:55;;;;;;;1.23;0.90;;;15.30;79.50;;;;;;5088454;28;20072;-74
2021/05/20 08:55:28;;;;;;;1.75;1.10;;;15.20;79.80;;;;;;5088401;28;20039;-74
2021/05/20 08:57:57;;;;;;;1.17;0.90;;;15.30;80.20;;;;;;5088570;28;20375;-74
2021/05/20 09:00:24;;;;;;;2.47;1.10;;;15.40;80.90;;;;;;5086646;28;20398;-74
2021/05/20 09:02:51;;;;;;;1.10;0.88;;;15.40;79.70;;;;;;5087319;28;20026;-74
2021/05/20 09:05:23;;;;;;;1.00;0.90;;;15.40;78.30;;;;;;5088540;28;20032;-75
2021/05/20 09:07:55;;;;;;;1.42;0.82;;;15.50;78.10;;;;;;5088384;28;20081;-75
2021/05/20 09:10:29;;;;;;;1.13;0.70;;;15.50;78.30;;;;;;5089175;28;20027;-75
2021/05/20 09:13:07;;;;;;;0.70;0.70;;;15.30;78.30;;;;;;5088725;28;20020;-74
2021/05/20 09:15:43;;;;;;;1.40;0.73;;;15.10;79.60;;;;;;5087901;28;20035;-74
2021/05/20 09:18:16;;;;;;;0.80;0.80;;;15.10;80.20;;;;;;5088626;28;20056;-76
2021/05/20 09:20:47;;;;;;;2.65;0.85;;;15.10;80.50;;;;;;5088195;28;20039;-74
2021/05/20 09:23:14;;;;;;;;;;;15.30;79.60;;;;;;5087643;28;20065;-74
2021/05/20 09:25:41;;;;;;;0.88;0.65;;;15.40;77.90;;;;;;5088011;28;19919;-75
2021/05/20 09:28:40;;;;;;;4.00;0.80;;;15.40;77.40;;;;;;5088046;28;20024;-74
2021/05/20 09:31:06;;;;;;;0.70;0.70;;;15.50;78.10;;;;;;5085493;28;20494;-75
2021/05/20 09:33:31;;;;;;;1.08;0.95;;;15.60;78.70;;;;;;5087011;28;20142;-74
2021/05/20 09:35:57;;;;;;;1.50;1.05;;;15.70;76.60;;;;;;5087611;28;20028;-74
2021/05/20 09:38:25;;;;;;;1.10;1.00;;;15.70;74.50;;;;;;5087763;28;20028;-74
2021/05/20 09:40:56;;;;;;;2.13;1.10;;;15.40;74.70;;;;;;5086736;28;20114;-73
2021/05/20 09:43:32;;;;;;;0.63;0.63;;;15.50;74.60;;;;;;5087909;28;20487;-74
2021/05/20 09:46:12;;;;;;;0.80;0.77;;;15.70;74.30;;;;;;5087378;28;20031;-73
2021/05/20 09:48:40;;;;;;;1.33;0.80;;;15.70;75.40;;;;;;5089855;28;20020;-73
2021/05/20 09:51:19;;;;;;;1.10;0.98;;;15.70;76.00;;;;;;5092148;28;20027;-74
2021/05/20 09:53:48;;;;;;;1.08;0.88;;;15.50;75.90;;;;;;5092676;28;20047;-74
2021/05/20 09:56:13;;;;;;;2.28;0.85;;;15.40;76.50;;;;;;5092031;28;20024;-73
2021/05/20 09:58:39;;;;;;;1.02;0.80;;;15.50;78.80;;;;;;5091717;28;20031;-74
2021/05/20 10:01:17;;;;;;;1.75;0.98;;;15.70;77.30;;;;;;5091665;28;20118;-72
2021/05/20 10:04:09;;;;;;;1.58;0.80;;;15.80;76.50;;;;;;5091937;28;20032;-73
2021/05/20 10:06:43;;;;;;;1.02;0.80;;;16.10;75.80;;;;;;5090739;28;20035;-74
2021/05/20 10:09:10;;;;;;;0.88;0.80;;;16.40;75.40;;;;;;5091247;28;20077;-75
2021/05/20 10:11:37;;;;;;;3.47;1.02;;;16.70;73.90;;;;;;5091815;28;20052;-73
2021/05/20 10:14:04;;;;;;;2.95;0.75;;;16.80;74.20;;;;;;5084754;28;20364;-74
2021/05/20 10:16:31;;;;;;;1.60;0.95;;;16.80;71.30;;;;;;5090768;28;20544;-73
2021/05/20 10:18:57;;;;;;;1.50;1.10;;;16.60;70.40;;;;;;5090587;28;20111;-73
2021/05/20 10:21:24;;;;;;;1.15;0.90;;;16.40;70.10;;;;;;5091816;28;20446;-76
2021/05/20 10:23:52;;;;;;;1.45;1.05;;;16.30;68.50;;;;;;5091427;28;20064;-76
2021/05/20 10:26:17;;;;;;;0.80;0.80;;;16.40;70.10;;;;;;5090086;28;20108;-75
2021/05/20 10:28:43;;;;;;;0.85;0.85;;;16.50;73.10;;;;;;5090139;28;20490;-76
2021/05/20 10:31:09;;;;;;;2.28;1.23;;;16.50;71.60;;;;;;5091044;28;20028;-75
2021/05/20 10:33:35;;;;;;;1.65;1.10;;;16.60;70.90;;;;;;5091513;28;20043;-75
2021/05/20 10:36:02;;;;;;;1.65;0.80;;;16.50;69.10;;;;;;5091756;28;20059;-75
2021/05/20 10:38:30;;;;;;;0.98;0.80;;;16.60;67.80;;;;;;5091559;28;20117;-75
2021/05/20 10:41:13;;;;;;;0.95;0.80;;;16.90;68.50;;;;;;5090803;28;20120;-77
2021/05/20 10:43:41;;;;;;;0.70;0.70;;;17.20;69.90;;;;;;5090758;28;20031;-83
2021/05/20 10:46:15;;;;;;;1.00;0.90;;;17.30;68.20;;;;;;5091296;28;20040;-76
2021/05/20 10:48:53;;;;;;;1.08;0.82;;;17.40;66.60;;;;;;5083560;28;20024;-78
2021/05/20 10:51:24;;;;;;;1.38;0.90;;;17.40;64.60;;;;;;5086886;28;20430;-74
2021/05/20 10:53:51;;;;;;;6.55;1.05;;;17.10;63.60;;;;;;5090708;28;20410;-80
2021/05/20 10:56:39;;;;;;;0.80;0.80;;;17.10;67.50;;;;;;5091143;28;20078;-78
2021/05/20 10:59:37;;;;;;;1.42;1.13;;;17.30;64.20;;;;;;5090352;28;20024;-77
2021/05/20 11:02:03;;;;;;;0.85;0.85;;;17.30;63.80;;;;;;5089590;28;20417;-78
2021/05/20 11:04:34;;;;;;;1.15;0.90;;;17.50;66.00;;;;;;5090137;28;20028;-76
2021/05/20 11:06:59;;;;;;;1.90;1.13;;;17.80;62.40;;;;;;5088767;28;20028;-78
2021/05/20 11:09:45;;;;;;;1.20;1.10;;;17.70;61.50;;;;;;5090957;28;20400;-78
2021/05/20 11:12:11;;;;;;;1.10;1.00;;;17.80;64.00;;;;;;5091204;28;20416;-79
2021/05/20 11:14:37;;;;;;;1.83;1.30;;;17.90;62.70;;;;;;5090065;28;20039;-75
2021/05/20 11:17:29;;;;;;;1.48;1.25;;;18.20;60.90;;;;;;5090311;28;20036;-76
2021/05/20 11:20:32;;;;;;;2.72;1.05;;;18.20;59.00;;;;;;5090166;28;20075;-75
2021/05/20 11:23:17;;;;;;;7.97;1.23;;;18.40;59.40;;;;;;5090691;28;20035;-76
2021/05/20 11:25:44;;;;;;;1.20;1.10;;;18.70;56.90;;;;;;5090169;28;20028;-75
2021/05/20 11:28:10;;;;;;;1.13;1.02;;;19.10;57.50;;;;;;5090856;28;20107;-74
2021/05/20 11:30:36;;;;;;;3.08;1.30;;;19.50;56.30;;;;;;5089666;28;20042;-76
2021/05/20 11:33:03;;;;;;;2.83;1.20;;;20.20;54.00;;;;;;5090390;28;20475;-72
2021/05/20 11:38:00;;;;;;;1.83;1.08;;;20.30;55.00;;;;;;5088297;28;20032;-74
2021/05/20 11:40:34;;;;;;;3.40;0.98;;;20.40;53.30;;;;;;5090647;28;20028;-76
2021/05/20 11:43:02;;;;;;;1.83;0.93;;;20.80;51.60;;;;;;5084288;28;20038;-75
2021/05/20 11:45:30;;;;;;;1.70;0.80;;;21.30;49.00;;;;;;5088923;28;20040;-75
2021/05/20 11:48:01;;;;;;;0.70;0.70;;;21.60;47.80;;;;;;5090309;28;20032;-75
2021/05/20 11:50:28;;;;;;;0.52;0.52;;;21.50;49.40;;;;;;5090306;28;20024;-75
2021/05/20 11:52:54;;;;;;;7.13;1.33;;;22.10;50.00;;;;;;5089648;28;20048;-74
2021/05/20 11:55:22;;;;;;;2.17;0.70;;;22.90;48.40;;;;;;5087303;28;20020;-76
2021/05/20 11:57:48;;;;;;;1.10;0.63;;;22.70;47.40;;;;;;5088835;28;20485;-75
2021/05/20 12:00:15;;;;;;;0.68;0.68;;;23.20;47.10;;;;;;5089310;28;20032;-74
2021/05/20 12:02:41;;;;;;;0.60;0.50;;;23.50;46.80;;;;;;5089285;28;20031;-74
2021/05/20 12:05:12;;;;;;;0.82;0.65;;;23.60;43.20;;;;;;5089184;28;20024;-80
2021/05/20 12:07:56;;;;;;;0.50;0.50;;;23.70;44.00;;;;;;5088592;28;20020;-79
2021/05/20 12:10:23;;;;;;;0.65;0.60;;;24.00;43.70;;;;;;5088700;28;20054;-82
2021/05/20 12:12:59;;;;;;;1.45;0.60;;;23.70;43.70;;;;;;5089376;28;20024;-79
2021/05/20 12:15:26;;;;;;;0.55;0.55;;;23.00;45.50;;;;;;5089040;28;20032;-80
2021/05/20 12:17:55;;;;;;;0.80;0.70;;;22.40;47.40;;;;;;5088641;28;20119;-85
2021/05/20 12:20:21;;;;;;;3.15;0.80;;;23.20;44.60;;;;;;5081946;28;20027;-83
2021/05/20 12:22:47;;;;;;;0.32;0.32;;;24.00;42.30;;;;;;5087505;28;20057;-84
2021/05/20 12:25:15;;;;;;;1.05;0.50;;;24.50;39.70;;;;;;5090163;28;20038;-83
2021/05/20 12:27:40;;;;;;;1.55;0.82;;;25.40;40.60;;;;;;5089379;28;20028;-83
2021/05/20 12:30:08;;;;;;;0.65;0.65;;;26.70;39.80;;;;;;5089033;28;20028;-84
2021/05/20 12:32:39;;;;;;;2.63;1.10;;;27.70;38.50;;;;;;5089439;28;20097;-83
2021/05/20 12:35:36;;;;;;;2.75;0.90;;;28.70;35.90;;;;;;5089126;28;20520;-84
2021/05/20 12:38:12;;;;;;;0.50;0.50;;;29.50;35.00;;;;;;5089511;28;20038;-85
2021/05/20 12:40:45;;;;;;;2.75;0.50;;;29.90;34.20;;;;;;5088568;28;20395;-83
2021/05/20 12:43:22;;;;;;;1.60;0.73;;;30.10;34.40;;;;;;5089024;28;20062;-83
2021/05/20 12:46:00;;;;;;;0.68;0.68;;;30.20;31.20;;;;;;5089235;28;20609;-83
2021/05/20 12:48:30;;;;;;;1.35;1.25;;;28.90;32.30;;;;;;5087328;28;20033;-83
2021/05/20 12:50:58;;;;;;;1.13;0.60;;;28.50;35.30;;;;;;5083702;28;20028;-84
2021/05/20 12:53:32;;;;;;;1.02;0.90;;;28.40;34.20;;;;;;5089608;28;20110;-83
2021/05/20 12:56:00;;;;;;;0.70;0.70;;;29.00;36.10;;;;;;5089460;28;20483;-84
2021/05/20 12:58:46;;;;;;;0.73;0.73;;;29.60;34.20;;;;;;5089897;28;20034;-84